Lexington, KY (40513)

8:11 AM EST on January 20, 2017 (GMT -0500)
Beaumont | | Change Station

Elev 976 ft 38.02 °N, 84.56 °W | Updated 22 days ago

Overcast
Overcast
43.8 °F
Feels Like 44 °F
N
2.0
Wind Variable Wind from SSE
Gusts 2.0 mph

Today
High -- | Low -- °F
--% Chance of Precip.
Yesterday
High -- | Low -- °F
Precip. -- in
Pressure 29.73 in
Visibility 10.0 miles
Clouds Scattered Clouds 1000 ft
Mostly Cloudy 1300 ft
Overcast 4100 ft
Windchill 44 °F
Dew Point 37 °F
Humidity 76%
Rainfall in
Snow Depth Not available.
7:50 AM 5:48 PM
Last Quarter, 44% visible
SPECI KLEX 201305Z 22011KT 10SM SCT010 BKN013 OVC041 13/12 A2973 RMK AO2 T01330117
Pressure 29.73 in
Visibility 10.0 miles
Clouds Scattered Clouds 1000 ft
Mostly Cloudy 1300 ft
Overcast 4100 ft
Windchill 44 °F
Dew Point 37 °F
Humidity 76%
Rainfall in
Snow Depth Not available.
7:50 AM 5:48 PM
Last Quarter, 44% visible
SPECI KLEX 201305Z 22011KT 10SM SCT010 BKN013 OVC041 13/12 A2973 RMK AO2 T01330117

Get Your Daily Forecast Email!

Thanks for signing up!

Be on the lookout for a verification email in your inbox.

You'll start receiving the daily forecast at 8 AM.

×

10-Day Weather Forecast

Almanac

Astronomy

Jan. 20, 2017 Rise Set
Actual Time
Civil Twilight
Nautical Twilight
Astronomical Twilight
Moon
Length of Visible Light
Length of Day
Tomorrow will be .
, % of the Moon is Illuminated

Today's Extremes

State Highs State Lows

Community

WunderPhotos

Upload Photos

1,962,540 photos uploaded!

WunderBlog® & News

Nearby

Air Quality

  Air Quality AQ Index Pollutant
Not available.

Snow Depth

Station Depth Elevation

Earthquake Activity

City Distance Mag. Time & Date
Minimum magnitude displayed is 2.5.

Coastal Water Temperatures

Place Temperature

Stations

Nearby Weather Stations

Station Location Temp. Windchill Dew Point Humidity Wind Precip. Elev Updated Type
                   

Watches & Warnings

There are currently no watches in effect.